createdAt,value
2018-04-01T00:00:52.789Z,69.67
2018-04-01T00:03:20.419Z,69.59
2018-04-01T00:05:48.086Z,69.35
2018-04-01T00:08:15.749Z,69.41
2018-04-01T00:10:43.377Z,69.38
2018-04-01T00:13:11.041Z,69.48
2018-04-01T00:15:38.678Z,69.52
2018-04-01T00:18:06.341Z,69.66
2018-04-01T00:20:33.979Z,69.85
2018-04-01T00:23:01.670Z,69.75
2018-04-01T00:25:29.337Z,69.51
2018-04-01T00:27:56.979Z,69.75
2018-04-01T00:30:24.624Z,69.69
2018-04-01T00:32:52.293Z,69.61
2018-04-01T00:35:19.969Z,69.64
2018-04-01T00:37:47.612Z,69.61
2018-04-01T00:40:15.296Z,69.77
2018-04-01T00:42:42.965Z,69.80
2018-04-01T00:45:10.636Z,70.06
2018-04-01T00:47:38.299Z,70.10
2018-04-01T00:50:05.933Z,70.36
2018-04-01T00:52:33.615Z,70.19
2018-04-01T00:55:01.286Z,70.16
2018-04-01T00:57:28.918Z,70.48
2018-04-01T00:59:56.598Z,70.63
2018-04-01T01:02:24.229Z,70.80
2018-04-01T01:04:51.906Z,70.31
2018-04-01T01:07:19.546Z,70.63
2018-04-01T01:09:47.186Z,70.58
2018-04-01T01:12:14.873Z,71.12
2018-04-01T01:14:42.511Z,70.91
2018-04-01T01:17:10.178Z,70.70
2018-04-01T01:19:37.806Z,70.54
2018-04-01T01:22:05.470Z,70.37
2018-04-01T01:24:33.105Z,70.48
2018-04-01T01:27:00.774Z,70.85
2018-04-01T01:29:28.403Z,70.56
2018-04-01T01:31:56.068Z,70.80
2018-04-01T01:34:23.748Z,70.21
2018-04-01T01:36:51.417Z,69.92
2018-04-01T01:39:19.050Z,70.01
2018-04-01T01:41:46.714Z,69.89
2018-04-01T01:44:14.417Z,69.74
2018-04-01T01:46:42.074Z,69.59
2018-04-01T01:49:09.710Z,69.43
2018-04-01T01:51:37.374Z,69.22
2018-04-01T01:54:05.006Z,69.25
2018-04-01T01:56:32.698Z,69.17
2018-04-01T01:59:00.350Z,69.55
2018-04-01T02:01:28.014Z,69.42
2018-04-01T02:03:55.641Z,69.08
2018-04-01T02:06:23.302Z,69.51
2018-04-01T02:08:50.944Z,69.43
2018-04-01T02:11:18.601Z,69.76
2018-04-01T02:13:46.265Z,69.23
2018-04-01T02:16:13.893Z,69.25
2018-04-01T02:18:41.562Z,69.37
2018-04-01T02:21:09.229Z,70.12
2018-04-01T02:23:36.858Z,70.64
2018-04-01T02:26:04.536Z,70.49
2018-04-01T02:28:32.170Z,70.04
2018-04-01T02:30:59.857Z,69.94
2018-04-01T02:33:27.487Z,70.55
2018-04-01T02:35:55.172Z,70.67
2018-04-01T02:38:22.845Z,70.48
2018-04-01T02:40:50.534Z,70.00
2018-04-01T02:43:18.170Z,70.40
2018-04-01T02:45:45.813Z,70.56
2018-04-01T02:48:13.495Z,70.52
2018-04-01T02:50:41.162Z,70.42
2018-04-01T02:53:08.808Z,70.73
2018-04-01T02:55:36.485Z,70.88
2018-04-01T02:58:04.128Z,70.27
2018-04-01T03:00:31.758Z,70.15
2018-04-01T03:02:59.434Z,70.27
2018-04-01T03:05:27.068Z,70.20
2018-04-01T03:07:54.731Z,70.28
2018-04-01T03:10:22.367Z,70.04
2018-04-01T03:12:50.042Z,71.76
2018-04-01T03:15:17.670Z,71.82
2018-04-01T03:17:45.299Z,71.14
2018-04-01T03:20:12.966Z,71.29
2018-04-01T03:22:40.639Z,72.06
2018-04-01T03:25:08.310Z,74.23
2018-04-01T03:27:35.940Z,73.18
2018-04-01T03:30:03.612Z,72.75
2018-04-01T03:32:31.337Z,72.03
2018-04-01T03:34:59.016Z,72.48
2018-04-01T03:37:26.662Z,72.77
2018-04-01T03:39:54.329Z,72.13
2018-04-01T03:42:21.980Z,71.64
2018-04-01T03:44:49.656Z,71.44
2018-04-01T03:47:17.314Z,71.08
2018-04-01T03:49:44.986Z,70.96
2018-04-01T03:52:12.649Z,71.27
2018-04-01T03:54:40.278Z,71.26
2018-04-01T03:57:07.952Z,71.21
2018-04-01T03:59:35.583Z,71.08
2018-04-01T04:02:03.254Z,71.34
2018-04-01T04:04:30.954Z,71.53
2018-04-01T04:06:58.654Z,71.83
2018-04-01T04:09:26.286Z,71.90
2018-04-01T04:11:53.958Z,72.00
2018-04-01T04:14:21.605Z,72.22
2018-04-01T04:16:49.284Z,72.20
2018-04-01T04:19:16.917Z,72.14
2018-04-01T04:21:44.594Z,73.58
2018-04-01T04:24:12.221Z,74.21
2018-04-01T04:26:39.860Z,73.34
2018-04-01T04:29:07.523Z,74.07
2018-04-01T04:31:35.154Z,75.02
2018-04-01T04:34:02.826Z,74.73
2018-04-01T04:36:30.506Z,74.71
2018-04-01T04:38:58.158Z,74.65
2018-04-01T04:41:25.794Z,73.21
2018-04-01T04:43:53.470Z,72.49
2018-04-01T04:46:21.098Z,72.50
2018-04-01T04:48:48.725Z,72.44
2018-04-01T04:51:16.387Z,72.17
2018-04-01T04:53:44.050Z,71.81
2018-04-01T04:56:11.682Z,71.93
2018-04-01T04:58:39.355Z,71.69
2018-04-01T05:01:06.987Z,71.46
2018-04-01T05:03:34.621Z,71.42
2018-04-01T05:06:02.286Z,71.22
2018-04-01T05:08:29.932Z,71.46
2018-04-01T05:10:57.598Z,71.24
2018-04-01T05:13:25.271Z,71.15
2018-04-01T05:15:52.954Z,71.40
2018-04-01T05:18:20.595Z,71.47
2018-04-01T05:20:48.226Z,71.10
2018-04-01T05:23:15.914Z,70.99
2018-04-01T05:25:43.544Z,70.80
2018-04-01T05:28:11.214Z,70.59
2018-04-01T05:30:38.880Z,70.70
2018-04-01T05:33:06.518Z,69.96
2018-04-01T05:35:34.189Z,69.70
2018-04-01T05:38:01.870Z,68.59
2018-04-01T05:40:29.501Z,68.77
2018-04-01T05:42:57.184Z,68.40
2018-04-01T05:45:24.819Z,68.12
2018-04-01T05:47:52.490Z,67.57
2018-04-01T05:50:20.167Z,67.24
2018-04-01T05:52:47.809Z,67.14
2018-04-01T05:55:15.482Z,66.69
2018-04-01T05:57:43.124Z,65.79
2018-04-01T06:00:10.798Z,65.78
2018-04-01T06:02:38.466Z,65.58
2018-04-01T06:05:06.094Z,63.50
2018-04-01T06:07:33.733Z,62.21
2018-04-01T06:10:01.407Z,61.38
2018-04-01T06:12:29.053Z,60.24
2018-04-01T06:14:56.718Z,60.29
2018-04-01T06:17:24.400Z,59.28
2018-04-01T06:19:52.033Z,58.62
2018-04-01T06:22:19.709Z,56.53
2018-04-01T06:24:47.339Z,54.96
2018-04-01T06:27:14.970Z,54.87
2018-04-01T06:29:42.637Z,56.43
2018-04-01T06:32:10.278Z,57.59
2018-04-01T06:34:37.945Z,59.33
2018-04-01T06:37:05.710Z,54.09
2018-04-01T06:39:33.362Z,53.73
2018-04-01T06:42:01.021Z,54.87
2018-04-01T06:44:28.689Z,55.60
2018-04-01T06:46:56.327Z,55.45
2018-04-01T06:49:23.994Z,56.12
2018-04-01T06:51:51.626Z,56.42
2018-04-01T06:54:19.304Z,56.92
2018-04-01T06:56:46.926Z,57.68
2018-04-01T06:59:14.597Z,58.21
2018-04-01T07:01:42.358Z,58.80
2018-04-01T07:04:09.974Z,58.67
2018-04-01T07:06:37.598Z,58.60
2018-04-01T07:09:05.267Z,58.78
2018-04-01T07:11:32.926Z,58.29
2018-04-01T07:14:00.581Z,58.06
2018-04-01T07:16:28.227Z,58.23
2018-04-01T07:18:55.894Z,58.42
2018-04-01T07:21:23.521Z,57.61
2018-04-01T07:23:51.207Z,58.51
2018-04-01T07:26:18.874Z,60.62
2018-04-01T07:28:46.501Z,62.17
2018-04-01T07:31:14.167Z,61.28
2018-04-01T07:33:41.798Z,61.02
2018-04-01T07:36:09.467Z,61.02
2018-04-01T07:38:37.094Z,62.85
2018-04-01T07:41:04.721Z,61.75
2018-04-01T07:43:32.390Z,60.18
2018-04-01T07:46:00.019Z,60.61
2018-04-01T07:48:27.637Z,62.50
2018-04-01T07:50:55.310Z,63.06
2018-04-01T07:53:22.958Z,64.73
2018-04-01T07:55:50.586Z,65.34
2018-04-01T07:58:18.256Z,66.29
2018-04-01T08:00:45.935Z,67.45
2018-04-01T08:03:13.537Z,67.95
2018-04-01T08:05:41.198Z,68.24
2018-04-01T08:08:08.885Z,68.27
2018-04-01T08:10:36.522Z,68.16
2018-04-01T08:13:04.190Z,68.52
2018-04-01T08:15:31.814Z,68.81
2018-04-01T08:17:59.435Z,67.82
2018-04-01T08:20:27.098Z,67.31
2018-04-01T08:22:54.750Z,65.35
2018-04-01T08:25:22.420Z,66.32
2018-04-01T08:27:50.055Z,65.75
2018-04-01T08:30:17.713Z,65.20
2018-04-01T08:32:45.339Z,64.34
2018-04-01T08:35:13.028Z,64.07
2018-04-01T08:37:40.669Z,62.58
2018-04-01T08:40:08.673Z,62.49
2018-04-01T08:42:36.338Z,60.46
2018-04-01T08:45:03.997Z,59.36
2018-04-01T08:47:31.618Z,58.46
2018-04-01T08:49:59.357Z,56.59
2018-04-01T08:52:26.977Z,56.22
2018-04-01T08:54:54.602Z,56.84
2018-04-01T08:57:22.279Z,55.51
2018-04-01T08:59:49.941Z,54.76
2018-04-01T09:02:17.622Z,53.36
2018-04-01T09:04:45.281Z,54.85
2018-04-01T09:07:12.921Z,53.66
2018-04-01T09:09:40.618Z,53.37
2018-04-01T09:12:08.283Z,52.50
2018-04-01T09:14:35.979Z,51.62
2018-04-01T09:17:03.615Z,45.75
2018-04-01T09:19:31.274Z,44.40
2018-04-01T09:21:58.902Z,45.36
2018-04-01T09:24:26.566Z,47.32
2018-04-01T09:26:54.240Z,46.54
2018-04-01T09:29:21.941Z,44.45
2018-04-01T09:31:49.625Z,44.80
2018-04-01T09:34:17.258Z,41.78
2018-04-01T09:36:44.941Z,40.06
2018-04-01T09:39:12.581Z,39.11
2018-04-01T09:41:40.208Z,39.32
2018-04-01T09:44:07.876Z,38.32
2018-04-01T09:46:35.520Z,36.71
2018-04-01T09:49:03.183Z,36.26
2018-04-01T09:51:30.846Z,37.19
2018-04-01T09:53:58.505Z,36.65
2018-04-01T09:56:26.182Z,36.50
2018-04-01T09:58:53.853Z,36.23
2018-04-01T10:01:22.048Z,34.87
2018-04-01T10:03:50.258Z,35.84
2018-04-01T10:06:18.441Z,34.49
2018-04-01T10:08:46.929Z,32.97
2018-04-01T10:11:15.417Z,33.15
2018-04-01T10:13:43.922Z,33.74
2018-04-01T10:16:12.392Z,31.42
2018-04-01T10:18:40.860Z,31.00
2018-04-01T10:21:09.354Z,31.65
2018-04-01T10:23:37.846Z,31.89
2018-04-01T10:26:06.298Z,32.13
2018-04-01T10:28:34.786Z,31.51
2018-04-01T10:31:03.278Z,31.43
2018-04-01T10:33:31.774Z,31.08
2018-04-01T10:36:00.261Z,29.97
2018-04-01T10:38:28.762Z,31.17
2018-04-01T10:40:57.232Z,30.96
2018-04-01T10:43:25.723Z,30.04
2018-04-01T10:45:54.218Z,30.41
2018-04-01T10:48:22.671Z,29.43
2018-04-01T10:50:51.174Z,28.99
2018-04-01T10:53:19.642Z,29.26
2018-04-01T10:55:47.599Z,29.71
2018-04-01T10:58:15.259Z,30.37
2018-04-01T11:00:42.936Z,31.09
2018-04-01T11:03:10.561Z,29.32
2018-04-01T11:05:38.182Z,29.61
2018-04-01T11:08:05.865Z,29.83
2018-04-01T11:10:33.494Z,30.38
2018-04-01T11:13:01.169Z,29.79
2018-04-01T11:15:28.797Z,29.29
2018-04-01T11:17:56.446Z,29.61
2018-04-01T11:20:24.106Z,30.72
2018-04-01T11:22:51.766Z,30.67
2018-04-01T11:25:19.465Z,29.91
2018-04-01T11:27:47.130Z,29.77
2018-04-01T11:30:14.794Z,29.52
2018-04-01T11:32:42.418Z,29.44
2018-04-01T11:35:10.046Z,29.92
2018-04-01T11:37:37.728Z,29.22
2018-04-01T11:40:05.350Z,28.44
2018-04-01T11:42:33.010Z,25.90
2018-04-01T11:45:00.670Z,23.44
2018-04-01T11:47:28.291Z,24.69
2018-04-01T11:49:55.953Z,25.05
2018-04-01T11:52:23.634Z,24.80
2018-04-01T11:54:51.259Z,25.99
2018-04-01T11:57:18.882Z,24.16
2018-04-01T11:59:46.550Z,24.46
2018-04-01T12:02:14.175Z,25.36
2018-04-01T12:04:41.834Z,25.69
2018-04-01T12:07:09.458Z,25.91
2018-04-01T12:09:37.118Z,25.46
2018-04-01T12:12:04.742Z,25.81
2018-04-01T12:14:32.418Z,25.69
2018-04-01T12:17:00.086Z,26.07
2018-04-01T12:19:27.744Z,25.58
2018-04-01T12:21:55.402Z,25.62
2018-04-01T12:24:23.021Z,24.88
2018-04-01T12:26:50.682Z,24.11
2018-04-01T12:29:18.358Z,23.86
2018-04-01T12:31:46.031Z,23.58
2018-04-01T12:34:13.663Z,23.26
2018-04-01T12:36:41.286Z,23.76
2018-04-01T12:39:08.937Z,22.69
2018-04-01T12:41:36.562Z,23.18
2018-04-01T12:44:04.240Z,22.58
2018-04-01T12:46:31.917Z,23.42
2018-04-01T12:48:59.540Z,23.60
2018-04-01T12:51:27.191Z,22.25
2018-04-01T12:53:54.845Z,22.36
2018-04-01T12:56:22.465Z,22.98
2018-04-01T12:58:50.134Z,23.07
2018-04-01T13:01:17.798Z,22.78
2018-04-01T13:03:45.421Z,22.38
2018-04-01T13:06:13.079Z,22.53
2018-04-01T13:08:40.833Z,21.38
2018-04-01T13:11:08.454Z,21.71
2018-04-01T13:13:36.078Z,21.08
2018-04-01T13:16:03.716Z,21.17
2018-04-01T13:18:31.351Z,21.10
2018-04-01T13:20:59.018Z,21.34
2018-04-01T13:23:26.650Z,21.15
2018-04-01T13:25:54.310Z,21.65
2018-04-01T13:28:21.970Z,21.42
2018-04-01T13:30:49.602Z,22.38
2018-04-01T13:33:17.247Z,22.57
2018-04-01T13:35:44.909Z,23.03
2018-04-01T13:38:12.527Z,26.24
2018-04-01T13:40:40.194Z,28.09
2018-04-01T13:43:07.817Z,26.89
2018-04-01T13:45:35.452Z,26.41
2018-04-01T13:48:03.119Z,25.63
2018-04-01T13:50:30.795Z,25.14
2018-04-01T13:52:58.445Z,25.05
2018-04-01T13:55:26.114Z,26.76
2018-04-01T13:57:53.734Z,31.46
2018-04-01T14:00:21.409Z,34.09
2018-04-01T14:02:49.034Z,35.92
2018-04-01T14:05:16.695Z,36.83
2018-04-01T14:07:44.361Z,38.34
2018-04-01T14:10:11.982Z,39.39
2018-04-01T14:12:39.645Z,39.92
2018-04-01T14:15:07.266Z,40.08
2018-04-01T14:17:34.917Z,39.96
2018-04-01T14:20:02.618Z,38.99
2018-04-01T14:22:30.286Z,38.75
2018-04-01T14:24:57.909Z,39.21
2018-04-01T14:27:25.534Z,38.39
2018-04-01T14:29:53.200Z,38.36
2018-04-01T14:32:20.827Z,38.56
2018-04-01T14:34:48.500Z,38.68
2018-04-01T14:37:16.146Z,39.85
2018-04-01T14:39:43.847Z,39.94
2018-04-01T14:42:11.473Z,40.81
2018-04-01T14:44:39.137Z,41.11
2018-04-01T14:47:06.776Z,40.61
2018-04-01T14:49:34.448Z,40.72
2018-04-01T14:52:02.114Z,41.45
2018-04-01T14:54:29.782Z,40.79
2018-04-01T14:56:57.403Z,40.33
2018-04-01T14:59:25.066Z,40.44
2018-04-01T15:01:52.726Z,40.97
2018-04-01T15:04:20.394Z,41.17
2018-04-01T15:06:48.018Z,40.96
2018-04-01T15:09:15.642Z,40.47
2018-04-01T15:11:43.305Z,40.61
2018-04-01T15:14:11.027Z,40.56
2018-04-01T15:16:38.670Z,40.66
2018-04-01T15:19:06.329Z,40.79
2018-04-01T15:21:33.972Z,41.10
2018-04-01T15:24:01.639Z,40.80
2018-04-01T15:26:29.266Z,41.94
2018-04-01T15:28:56.942Z,44.04
2018-04-01T15:31:24.573Z,46.09
2018-04-01T15:33:52.252Z,48.28
2018-04-01T15:36:19.931Z,50.52
2018-04-01T15:38:48.454Z,50.66
2018-04-01T15:41:16.138Z,49.91
2018-04-01T15:43:43.767Z,49.45
2018-04-01T15:46:11.438Z,50.46
2018-04-01T15:48:39.068Z,50.71
2018-04-01T15:51:06.693Z,51.86
2018-04-01T15:53:34.350Z,53.11
2018-04-01T15:56:01.974Z,54.17
2018-04-01T15:58:29.678Z,52.76
2018-04-01T16:00:57.338Z,52.44
2018-04-01T16:03:24.997Z,51.90
2018-04-01T16:05:52.621Z,51.83
2018-04-01T16:08:20.290Z,51.68
2018-04-01T16:10:47.926Z,51.07
2018-04-01T16:13:15.594Z,50.51
2018-04-01T16:15:43.222Z,50.36
2018-04-01T16:18:10.898Z,50.28
2018-04-01T16:20:38.572Z,50.44
2018-04-01T16:23:06.199Z,50.82
2018-04-01T16:25:33.861Z,50.40
2018-04-01T16:28:01.490Z,52.04
2018-04-01T16:30:29.169Z,52.65
2018-04-01T16:32:56.794Z,53.82
2018-04-01T16:35:24.454Z,54.23
2018-04-01T16:37:52.118Z,54.05
2018-04-01T16:40:19.778Z,53.88
2018-04-01T16:42:47.442Z,53.56
2018-04-01T16:45:15.086Z,53.11
2018-04-01T16:47:42.751Z,53.44
2018-04-01T16:50:10.426Z,53.43
2018-04-01T16:52:38.075Z,53.54
2018-04-01T16:55:05.748Z,53.51
2018-04-01T16:57:33.370Z,53.40
2018-04-01T17:00:01.060Z,53.12
2018-04-01T17:02:28.686Z,52.85
2018-04-01T17:04:56.351Z,52.02
2018-04-01T17:07:23.969Z,51.97
2018-04-01T17:09:51.637Z,52.30
2018-04-01T17:12:19.262Z,53.23
2018-04-01T17:14:46.892Z,54.23
2018-04-01T17:17:14.560Z,54.04
2018-04-01T17:19:42.190Z,54.83
2018-04-01T17:22:09.814Z,54.74
2018-04-01T17:24:37.458Z,54.78
2018-04-01T17:27:05.142Z,54.73
2018-04-01T17:29:32.798Z,54.76
2018-04-01T17:32:00.453Z,54.41
2018-04-01T17:34:28.122Z,54.13
2018-04-01T17:36:55.750Z,54.14
2018-04-01T17:39:23.419Z,53.85
2018-04-01T17:41:51.044Z,53.59
2018-04-01T17:44:18.712Z,53.41
2018-04-01T17:46:46.384Z,53.09
2018-04-01T17:49:14.020Z,52.80
2018-04-01T17:51:41.690Z,52.69
2018-04-01T17:54:09.316Z,52.44
2018-04-01T17:56:36.981Z,52.85
2018-04-01T17:59:04.635Z,53.16
2018-04-01T18:01:32.290Z,53.57
2018-04-01T18:03:59.953Z,53.79
2018-04-01T18:06:27.610Z,53.61
2018-04-01T18:08:55.274Z,53.33
2018-04-01T18:11:22.903Z,53.10
2018-04-01T18:13:50.565Z,53.09
2018-04-01T18:16:18.190Z,53.09
2018-04-01T18:18:45.870Z,53.26
2018-04-01T18:21:13.553Z,53.73
2018-04-01T18:23:41.306Z,53.81
2018-04-01T18:26:08.930Z,53.47
2018-04-01T18:28:36.554Z,52.96
2018-04-01T18:31:04.213Z,52.68
2018-04-01T18:33:31.833Z,52.45
2018-04-01T18:35:59.504Z,52.11
2018-04-01T18:38:27.133Z,51.88
2018-04-01T18:40:54.804Z,52.15
2018-04-01T18:43:22.470Z,51.52
2018-04-01T18:45:50.124Z,51.80
2018-04-01T18:48:17.789Z,51.69
2018-04-01T18:50:45.453Z,51.95
2018-04-01T18:53:13.875Z,52.28
2018-04-01T18:55:41.497Z,52.33
2018-04-01T18:58:09.174Z,52.25
2018-04-01T19:00:36.793Z,52.07
2018-04-01T19:03:04.454Z,52.52
2018-04-01T19:05:32.115Z,52.79
2018-04-01T19:07:59.755Z,52.79
2018-04-01T19:10:27.449Z,53.32
2018-04-01T19:12:55.078Z,53.50
2018-04-01T19:15:22.748Z,53.09
2018-04-01T19:17:50.901Z,53.37
2018-04-01T19:20:19.398Z,53.47
2018-04-01T19:22:47.851Z,53.41
2018-04-01T19:25:16.343Z,52.85
2018-04-01T19:27:44.830Z,52.80
2018-04-01T19:30:13.318Z,53.32
2018-04-01T19:32:41.778Z,53.26
2018-04-01T19:35:10.268Z,53.67
2018-04-01T19:37:38.761Z,53.77
2018-04-01T19:40:07.329Z,54.05
2018-04-01T19:42:35.791Z,54.05
2018-04-01T19:45:04.262Z,53.53
2018-04-01T19:47:32.758Z,53.73
2018-04-01T19:50:01.219Z,53.99
2018-04-01T19:52:29.731Z,54.03
2018-04-01T19:54:58.191Z,53.82
2018-04-01T19:57:26.648Z,53.86
2018-04-01T19:59:55.141Z,53.48
2018-04-01T20:02:23.594Z,53.86
2018-04-01T20:04:52.082Z,54.08
2018-04-01T20:07:20.549Z,54.36
2018-04-01T20:09:49.052Z,54.67
2018-04-01T20:12:17.502Z,55.24
2018-04-01T20:14:45.998Z,55.45
2018-04-01T20:17:14.470Z,55.41
2018-04-01T20:19:42.977Z,55.13
2018-04-01T20:22:11.422Z,54.98
2018-04-01T20:24:39.914Z,54.78
2018-04-01T20:27:08.406Z,54.73
2018-04-01T20:29:36.900Z,54.83
2018-04-01T20:32:05.412Z,54.69
2018-04-01T20:34:33.894Z,54.95
2018-04-01T20:37:02.408Z,55.21
2018-04-01T20:39:30.872Z,55.02
2018-04-01T20:41:59.335Z,55.17
2018-04-01T20:44:27.830Z,55.19
2018-04-01T20:46:56.278Z,55.27
2018-04-01T20:49:24.803Z,55.58
2018-04-01T20:51:53.320Z,55.16
2018-04-01T20:54:21.820Z,55.69
2018-04-01T20:56:50.290Z,55.56
2018-04-01T20:59:18.777Z,55.18
2018-04-01T21:01:47.280Z,55.13
2018-04-01T21:04:15.733Z,55.03
2018-04-01T21:06:44.218Z,55.14
2018-04-01T21:09:12.675Z,55.23
2018-04-01T21:11:41.176Z,55.15
2018-04-01T21:14:09.634Z,55.33
2018-04-01T21:16:38.090Z,55.22
2018-04-01T21:19:06.577Z,55.15
2018-04-01T21:21:35.086Z,55.33
2018-04-01T21:24:03.542Z,55.25
2018-04-01T21:26:31.990Z,55.24
2018-04-01T21:29:00.496Z,55.30
2018-04-01T21:31:28.973Z,55.09
2018-04-01T21:33:57.434Z,55.09
2018-04-01T21:36:25.930Z,54.63
2018-04-01T21:38:54.438Z,54.81
2018-04-01T21:41:22.959Z,54.49
2018-04-01T21:43:51.411Z,54.94
2018-04-01T21:46:19.869Z,55.00
2018-04-01T21:48:48.361Z,55.13
2018-04-01T21:51:16.822Z,55.05
2018-04-01T21:53:45.289Z,54.92
2018-04-01T21:56:13.797Z,55.13
2018-04-01T21:58:42.253Z,54.67
2018-04-01T22:01:10.710Z,54.54
2018-04-01T22:03:39.197Z,54.44
2018-04-01T22:06:07.688Z,54.18
2018-04-01T22:08:36.141Z,53.99
2018-04-01T22:11:04.634Z,53.51
2018-04-01T22:13:33.113Z,53.43
2018-04-01T22:16:01.615Z,53.62
2018-04-01T22:18:30.070Z,53.24
2018-04-01T22:20:58.557Z,53.13
2018-04-01T22:23:27.015Z,53.14
2018-04-01T22:25:55.540Z,52.87
2018-04-01T22:28:24.030Z,52.97
2018-04-01T22:30:52.555Z,53.32
2018-04-01T22:33:21.086Z,53.16
2018-04-01T22:35:49.538Z,52.97
2018-04-01T22:38:18.038Z,53.11
2018-04-01T22:40:46.502Z,53.06
2018-04-01T22:43:14.997Z,53.22
2018-04-01T22:45:43.460Z,53.00
2018-04-01T22:48:11.961Z,53.32
2018-04-01T22:50:40.419Z,52.94
2018-04-01T22:53:08.925Z,53.18
2018-04-01T22:55:37.383Z,53.03
2018-04-01T22:58:05.913Z,53.34
2018-04-01T23:00:34.385Z,52.86
2018-04-01T23:03:02.910Z,52.88
2018-04-01T23:05:31.388Z,52.76
2018-04-01T23:07:59.898Z,52.61
2018-04-01T23:10:28.359Z,52.45
2018-04-01T23:12:56.876Z,52.79
2018-04-01T23:15:25.327Z,52.21
2018-04-01T23:17:53.828Z,51.78
2018-04-01T23:20:22.287Z,51.68
2018-04-01T23:22:50.777Z,51.95
2018-04-01T23:25:19.226Z,51.66
2018-04-01T23:27:47.699Z,51.86
2018-04-01T23:30:16.186Z,51.92
2018-04-01T23:32:44.702Z,52.14
2018-04-01T23:35:13.154Z,52.26
2018-04-01T23:37:41.646Z,52.39
2018-04-01T23:40:10.105Z,52.48
2018-04-01T23:42:38.562Z,52.64
2018-04-01T23:45:07.067Z,53.02
2018-04-01T23:47:35.533Z,53.09
2018-04-01T23:50:04.023Z,52.91
2018-04-01T23:52:32.517Z,53.21
2018-04-01T23:55:00.983Z,53.22
2018-04-01T23:57:29.470Z,53.37
2018-04-01T23:59:57.926Z,52.97
